createdAt,value
2022-11-28T05:00:34.288Z,0.00
2022-11-28T05:01:34.164Z,0.00
2022-11-28T05:02:34.213Z,0.00
2022-11-28T05:03:35.957Z,0.00
2022-11-28T05:04:34.126Z,0.00
2022-11-28T05:05:34.179Z,0.00
2022-11-28T05:06:34.102Z,0.00
2022-11-28T05:07:34.187Z,0.00
2022-11-28T05:08:34.086Z,0.00
2022-11-28T05:09:34.070Z,0.00
2022-11-28T05:10:34.096Z,0.00
2022-11-28T05:11:39.077Z,0.00
2022-11-28T05:12:34.036Z,0.00
2022-11-28T05:13:34.083Z,0.00
2022-11-28T05:14:34.049Z,0.00
2022-11-28T05:15:34.053Z,0.00
2022-11-28T05:16:34.159Z,0.00
2022-11-28T05:17:37.712Z,0.00
2022-11-28T05:18:35.005Z,0.00
2022-11-28T05:19:33.952Z,0.00
2022-11-28T05:20:33.940Z,0.00
2022-11-28T05:21:34.035Z,0.00
2022-11-28T05:22:38.950Z,0.00
2022-11-28T05:23:33.928Z,0.00
2022-11-28T05:24:33.912Z,0.00
2022-11-28T05:25:33.919Z,0.00
2022-11-28T05:26:33.906Z,0.00
2022-11-28T05:27:33.900Z,0.00
2022-11-28T05:28:33.863Z,0.00
2022-11-28T05:29:33.852Z,0.00
2022-11-28T05:30:33.845Z,0.00
2022-11-28T05:31:33.928Z,0.00
2022-11-28T05:32:33.968Z,0.00
2022-11-28T05:33:38.819Z,0.00
2022-11-28T05:34:33.790Z,0.00
2022-11-28T05:35:33.782Z,0.00
2022-11-28T05:36:33.788Z,0.00
2022-11-28T05:37:33.787Z,0.00
2022-11-28T05:38:33.747Z,0.00
2022-11-28T05:39:33.772Z,0.00
2022-11-28T05:40:33.732Z,0.00
2022-11-28T05:41:33.721Z,0.00
2022-11-28T05:42:33.737Z,0.00
2022-11-28T05:43:33.682Z,0.00
2022-11-28T05:44:38.755Z,0.00
2022-11-28T05:45:33.752Z,0.00
2022-11-28T05:46:33.661Z,0.00
2022-11-28T05:47:33.647Z,0.00
2022-11-28T05:48:33.743Z,0.00
2022-11-28T05:49:33.635Z,0.00
2022-11-28T05:50:38.506Z,0.00
2022-11-28T05:51:34.622Z,0.00
2022-11-28T05:52:33.645Z,0.00
2022-11-28T05:53:33.630Z,0.00
2022-11-28T05:54:33.556Z,0.00
2022-11-28T05:55:38.571Z,0.00
2022-11-28T05:56:35.939Z,0.00
2022-11-28T05:57:34.575Z,0.00
2022-11-28T05:58:33.535Z,0.00
2022-11-28T05:59:33.560Z,0.00
2022-11-28T06:00:33.543Z,0.00
2022-11-28T06:01:33.524Z,0.00
2022-11-28T06:02:33.572Z,0.00
2022-11-28T06:03:33.509Z,0.00
2022-11-28T06:04:33.702Z,0.00
2022-11-28T06:05:42.771Z,0.00
2022-11-28T06:06:39.472Z,0.00
2022-11-28T06:07:33.465Z,0.00
2022-11-28T06:08:33.410Z,0.00
2022-11-28T06:09:33.414Z,0.00
2022-11-28T06:10:33.390Z,0.00
2022-11-28T06:11:33.425Z,0.00
2022-11-28T06:12:33.358Z,0.00
2022-11-28T06:13:33.352Z,0.00
2022-11-28T06:14:33.342Z,0.00
2022-11-28T06:15:37.607Z,0.00
2022-11-28T06:16:33.440Z,0.00
2022-11-28T06:17:38.363Z,0.00
2022-11-28T06:18:33.428Z,0.00
2022-11-28T06:19:33.330Z,0.00
2022-11-28T06:20:33.304Z,0.00
2022-11-28T06:21:33.276Z,0.00
2022-11-28T06:22:33.249Z,0.00
2022-11-28T06:23:33.516Z,0.00
2022-11-28T06:24:33.269Z,0.00
2022-11-28T06:25:33.396Z,0.00
2022-11-28T06:26:33.278Z,0.00
2022-11-28T06:27:33.201Z,0.00
2022-11-28T06:28:38.218Z,0.00
2022-11-28T06:29:33.185Z,0.00
2022-11-28T06:30:33.158Z,0.00
2022-11-28T06:31:33.394Z,0.00
2022-11-28T06:32:33.345Z,0.00
2022-11-28T06:33:33.144Z,0.00
2022-11-28T06:34:33.144Z,0.00
2022-11-28T06:35:33.131Z,0.00
2022-11-28T06:36:33.207Z,0.00
2022-11-28T06:37:33.079Z,0.00
2022-11-28T06:38:33.114Z,0.00
2022-11-28T06:39:38.108Z,0.00
2022-11-28T06:40:33.044Z,0.00
2022-11-28T06:41:33.095Z,0.00
2022-11-28T06:42:33.058Z,0.00
2022-11-28T06:43:33.036Z,0.00
2022-11-28T06:44:33.062Z,0.00
2022-11-28T06:45:33.049Z,0.00
2022-11-28T06:46:33.032Z,0.00
2022-11-28T06:47:33.009Z,0.00
2022-11-28T06:48:32.963Z,0.00
2022-11-28T06:49:32.947Z,0.00
2022-11-28T06:50:37.987Z,0.00
2022-11-28T06:51:32.920Z,0.00
2022-11-28T06:52:33.037Z,0.00
2022-11-28T06:53:33.032Z,0.00
2022-11-28T06:54:32.887Z,0.00
2022-11-28T06:55:32.879Z,0.00
2022-11-28T06:56:32.877Z,0.00
2022-11-28T06:57:32.904Z,0.00
2022-11-28T06:58:32.896Z,0.00
2022-11-28T06:59:32.835Z,0.00
2022-11-28T07:00:32.876Z,0.00
2022-11-28T07:01:37.937Z,0.00
2022-11-28T07:02:32.947Z,0.00
2022-11-28T07:03:32.794Z,0.00
2022-11-28T07:04:32.802Z,0.00
2022-11-28T07:05:32.821Z,0.00
2022-11-28T07:06:32.755Z,0.00
2022-11-28T07:07:32.812Z,0.00
2022-11-28T07:08:32.886Z,0.00
2022-11-28T07:09:32.746Z,0.00
2022-11-28T07:10:32.752Z,0.00
2022-11-28T07:11:32.703Z,0.00
2022-11-28T07:12:37.720Z,0.00
2022-11-28T07:13:32.724Z,0.00
2022-11-28T07:14:32.704Z,5.62
2022-11-28T07:15:32.670Z,5.62
2022-11-28T07:16:32.885Z,5.62
2022-11-28T07:17:32.665Z,5.62
2022-11-28T07:18:32.621Z,5.62
2022-11-28T07:19:32.640Z,5.62
2022-11-28T07:20:32.646Z,5.62
2022-11-28T07:21:32.597Z,5.62
2022-11-28T07:22:32.590Z,5.62
2022-11-28T07:23:37.706Z,5.62
2022-11-28T07:24:32.561Z,5.62
2022-11-28T07:25:32.583Z,5.62
2022-11-28T07:26:32.531Z,5.62
2022-11-28T07:27:32.543Z,5.62
2022-11-28T07:28:32.513Z,5.62
2022-11-28T07:29:32.604Z,5.62
2022-11-28T07:30:32.508Z,5.62
2022-11-28T07:31:32.670Z,11.25
2022-11-28T07:32:32.484Z,11.25
2022-11-28T07:33:32.474Z,11.25
2022-11-28T07:34:37.468Z,11.25
2022-11-28T07:35:32.433Z,11.25
2022-11-28T07:36:32.444Z,11.25
2022-11-28T07:37:32.438Z,11.25
2022-11-28T07:38:32.424Z,11.25
2022-11-28T07:39:32.511Z,16.88
2022-11-28T07:40:32.411Z,16.88
2022-11-28T07:41:32.389Z,16.88
2022-11-28T07:42:32.380Z,16.88
2022-11-28T07:43:32.360Z,16.88
2022-11-28T07:44:32.340Z,16.88
2022-11-28T07:45:59.513Z,16.88
2022-11-28T07:46:33.430Z,16.88
2022-11-28T07:47:32.324Z,16.88
2022-11-28T07:48:32.315Z,16.88
2022-11-28T07:49:32.329Z,16.88
2022-11-28T07:50:32.262Z,22.50
2022-11-28T07:51:32.249Z,22.50
2022-11-28T07:52:32.259Z,22.50
2022-11-28T07:53:32.276Z,22.50
2022-11-28T07:54:32.232Z,28.12
2022-11-28T07:55:32.233Z,28.12
2022-11-28T07:57:10.938Z,28.12
2022-11-28T07:57:33.222Z,28.12
2022-11-28T07:58:32.256Z,33.75
2022-11-28T07:59:32.163Z,33.75
2022-11-28T08:00:32.166Z,33.75
2022-11-28T08:01:32.184Z,33.75
2022-11-28T08:02:32.222Z,33.75
2022-11-28T08:03:32.131Z,33.75
2022-11-28T08:04:32.163Z,33.75
2022-11-28T08:05:32.122Z,33.75
2022-11-28T08:06:32.125Z,33.75
2022-11-28T08:07:37.193Z,33.75
2022-11-28T08:08:32.067Z,33.75
2022-11-28T08:09:32.071Z,33.75
2022-11-28T08:10:32.080Z,39.38
2022-11-28T08:11:32.088Z,39.38
2022-11-28T08:12:32.041Z,39.38
2022-11-28T08:13:32.025Z,39.38
2022-11-28T08:14:31.999Z,39.38
2022-11-28T08:15:31.993Z,39.38
2022-11-28T08:16:32.041Z,39.38
2022-11-28T08:17:31.986Z,45.00
2022-11-28T08:18:37.059Z,45.00
2022-11-28T08:19:35.219Z,45.00
2022-11-28T08:20:31.931Z,50.62
2022-11-28T08:21:31.941Z,50.62
2022-11-28T08:22:31.921Z,50.62
2022-11-28T08:23:31.942Z,56.25
2022-11-28T08:24:31.931Z,56.25
2022-11-28T08:25:31.876Z,56.25
2022-11-28T08:26:31.882Z,56.25
2022-11-28T08:27:31.889Z,56.25
2022-11-28T08:28:31.885Z,56.25
2022-11-28T08:29:36.903Z,56.25
2022-11-28T08:30:31.828Z,56.25
2022-11-28T08:31:31.818Z,56.25
2022-11-28T08:32:31.825Z,56.25
2022-11-28T08:33:31.821Z,56.25
2022-11-28T08:34:31.836Z,56.25
2022-11-28T08:35:31.760Z,56.25
2022-11-28T08:36:31.758Z,56.25
2022-11-28T08:37:31.751Z,56.25
2022-11-28T08:38:31.769Z,56.25
2022-11-28T08:39:31.717Z,56.25
2022-11-28T08:40:36.740Z,56.25
2022-11-28T08:41:31.698Z,56.25
2022-11-28T08:42:31.698Z,56.25
2022-11-28T08:43:31.909Z,56.25
2022-11-28T08:44:31.701Z,56.25
2022-11-28T08:45:31.711Z,56.25
2022-11-28T08:46:31.668Z,56.25
2022-11-28T08:47:31.641Z,56.25
2022-11-28T08:48:31.637Z,56.25
2022-11-28T08:49:31.693Z,61.88
2022-11-28T08:50:31.614Z,61.88
2022-11-28T08:51:36.616Z,61.88
2022-11-28T08:52:31.630Z,61.88
2022-11-28T08:53:31.578Z,67.50
2022-11-28T08:54:31.556Z,67.50
2022-11-28T08:55:32.819Z,67.50
2022-11-28T08:56:31.560Z,67.50
2022-11-28T08:57:31.558Z,67.50
2022-11-28T08:58:31.647Z,67.50
2022-11-28T08:59:31.517Z,73.12
2022-11-28T09:00:31.511Z,73.12
2022-11-28T09:01:31.546Z,73.12
2022-11-28T09:02:36.488Z,73.12
2022-11-28T09:03:31.542Z,73.12
2022-11-28T09:04:31.443Z,73.12
2022-11-28T09:05:31.435Z,73.12
2022-11-28T09:06:31.476Z,73.12
2022-11-28T09:07:31.515Z,73.12
2022-11-28T09:08:31.441Z,73.12
2022-11-28T09:09:43.305Z,78.75
2022-11-28T09:10:32.444Z,73.12
2022-11-28T09:11:31.364Z,73.12
2022-11-28T09:12:31.358Z,73.12
2022-11-28T09:13:36.412Z,73.12
2022-11-28T09:14:31.368Z,73.12
2022-11-28T09:15:31.358Z,73.12
2022-11-28T09:16:31.408Z,73.12
2022-11-28T09:17:31.307Z,78.75
2022-11-28T09:18:31.303Z,78.75
2022-11-28T09:19:31.339Z,78.75
2022-11-28T09:20:31.347Z,84.38
2022-11-28T09:21:31.255Z,90.00
2022-11-28T09:22:31.272Z,90.00
2022-11-28T09:23:31.247Z,90.00
2022-11-28T09:24:36.255Z,95.62
2022-11-28T09:25:31.293Z,95.62
2022-11-28T09:26:31.261Z,95.62
2022-11-28T09:27:31.186Z,95.62
2022-11-28T09:28:31.188Z,95.62
2022-11-28T09:29:31.162Z,95.62
2022-11-28T09:30:31.206Z,95.62
2022-11-28T09:31:31.259Z,95.62
2022-11-28T09:32:31.133Z,95.62
2022-11-28T09:33:31.170Z,90.00
2022-11-28T09:34:31.111Z,90.00
2022-11-28T09:35:36.220Z,84.38
2022-11-28T09:36:31.100Z,78.75
2022-11-28T09:37:31.114Z,73.12
2022-11-28T09:38:31.076Z,73.12
2022-11-28T09:39:43.894Z,67.50
2022-11-28T09:40:32.061Z,67.50
2022-11-28T09:41:31.045Z,67.50
2022-11-28T09:42:31.035Z,67.50
2022-11-28T09:43:31.063Z,67.50
2022-11-28T09:44:31.018Z,61.88
2022-11-28T09:45:31.011Z,61.88
2022-11-28T09:46:36.101Z,67.50
2022-11-28T09:47:30.990Z,67.50
2022-11-28T09:48:30.977Z,61.88
2022-11-28T09:49:35.341Z,61.88
2022-11-28T09:50:32.012Z,61.88
2022-11-28T09:51:30.923Z,61.88
2022-11-28T09:52:30.978Z,61.88
2022-11-28T09:53:30.914Z,61.88
2022-11-28T09:54:30.955Z,61.88
2022-11-28T09:55:30.892Z,61.88
2022-11-28T09:56:30.895Z,61.88
2022-11-28T09:57:35.876Z,61.88
2022-11-28T09:58:30.845Z,56.25
2022-11-28T09:59:30.940Z,56.25
2022-11-28T10:00:30.854Z,56.25
2022-11-28T10:01:30.815Z,56.25
2022-11-28T10:02:31.459Z,56.25
2022-11-28T10:03:30.890Z,50.62
2022-11-28T10:04:30.863Z,50.62
2022-11-28T10:05:30.762Z,50.62
2022-11-28T10:06:30.774Z,50.62
2022-11-28T10:07:30.868Z,50.62
2022-11-28T10:08:35.772Z,50.62
2022-11-28T10:09:30.734Z,45.00
2022-11-28T10:10:30.880Z,45.00
2022-11-28T10:11:30.741Z,39.38
2022-11-28T10:12:30.711Z,39.38
2022-11-28T10:13:47.021Z,39.38
2022-11-28T10:14:31.718Z,39.38
2022-11-28T10:15:30.671Z,39.38
2022-11-28T10:16:30.737Z,50.62
2022-11-28T10:17:30.674Z,61.88
2022-11-28T10:18:30.699Z,67.50
2022-11-28T10:19:53.851Z,73.12
2022-11-28T10:20:31.618Z,84.38
2022-11-28T10:21:30.606Z,84.38
2022-11-28T10:22:30.580Z,84.38
2022-11-28T10:23:30.714Z,84.38
2022-11-28T10:24:30.558Z,90.00
2022-11-28T10:25:30.572Z,90.00
2022-11-28T10:26:30.607Z,90.00
2022-11-28T10:27:30.522Z,95.62
2022-11-28T10:28:30.510Z,106.88
2022-11-28T10:29:30.524Z,118.12
2022-11-28T10:30:35.659Z,123.75
2022-11-28T10:31:30.556Z,123.75
2022-11-28T10:32:30.470Z,123.75
2022-11-28T10:33:30.477Z,123.75
2022-11-28T10:34:30.462Z,118.12
2022-11-28T10:35:30.464Z,118.12
2022-11-28T10:36:30.454Z,112.50
2022-11-28T10:37:30.406Z,112.50
2022-11-28T10:38:30.402Z,106.88
2022-11-28T10:39:30.432Z,106.88
2022-11-28T10:40:30.430Z,106.88
2022-11-28T10:41:35.409Z,106.88
2022-11-28T10:42:30.388Z,106.88
2022-11-28T10:43:30.379Z,106.88
2022-11-28T10:44:30.358Z,101.25
2022-11-28T10:45:30.329Z,95.62
2022-11-28T10:46:30.413Z,95.62
2022-11-28T10:47:30.332Z,101.25
2022-11-28T10:48:39.440Z,106.88
2022-11-28T10:49:31.282Z,112.50
2022-11-28T10:50:32.397Z,118.12
2022-11-28T10:51:30.267Z,112.50
2022-11-28T10:52:35.281Z,112.50
2022-11-28T10:53:30.239Z,112.50
2022-11-28T10:54:30.271Z,112.50
2022-11-28T10:55:30.240Z,118.12
2022-11-28T10:56:30.210Z,118.12
2022-11-28T10:57:30.195Z,123.75
2022-11-28T10:58:30.191Z,129.38
2022-11-28T10:59:30.201Z,135.00
2022-11-28T11:00:30.207Z,129.38
2022-11-28T11:01:30.237Z,123.75
2022-11-28T11:02:30.135Z,112.50
2022-11-28T11:03:35.177Z,106.88
2022-11-28T11:04:30.177Z,101.25
2022-11-28T11:05:30.256Z,95.62
2022-11-28T11:06:41.305Z,90.00
2022-11-28T11:07:31.303Z,90.00
2022-11-28T11:08:30.105Z,90.00
2022-11-28T11:09:30.058Z,95.62
2022-11-28T11:10:30.072Z,101.25
2022-11-28T11:11:30.094Z,101.25
2022-11-28T11:12:30.032Z,101.25
2022-11-28T11:13:30.081Z,101.25
2022-11-28T11:14:35.125Z,101.25
2022-11-28T11:15:30.052Z,95.62
2022-11-28T11:16:30.139Z,95.62
2022-11-28T11:17:34.358Z,95.62
2022-11-28T11:18:30.956Z,95.62
2022-11-28T11:19:29.975Z,95.62
2022-11-28T11:20:29.930Z,90.00
2022-11-28T11:21:29.937Z,90.00
2022-11-28T11:22:29.933Z,95.62
2022-11-28T11:23:33.939Z,95.62
2022-11-28T11:24:30.885Z,101.25
2022-11-28T11:25:34.897Z,101.25
2022-11-28T11:26:29.913Z,101.25
2022-11-28T11:27:29.916Z,101.25
2022-11-28T11:28:29.910Z,101.25
2022-11-28T11:29:29.827Z,101.25
2022-11-28T11:30:29.941Z,95.62
2022-11-28T11:31:29.877Z,95.62
2022-11-28T11:32:29.861Z,95.62
2022-11-28T11:33:29.836Z,90.00
2022-11-28T11:34:29.824Z,90.00
2022-11-28T11:35:29.819Z,84.38
2022-11-28T11:36:34.867Z,84.38
2022-11-28T11:37:29.890Z,84.38
2022-11-28T11:38:33.614Z,90.00
2022-11-28T11:39:30.740Z,95.62
2022-11-28T11:40:29.731Z,95.62
2022-11-28T11:41:29.783Z,101.25
2022-11-28T11:42:29.693Z,101.25
2022-11-28T11:43:29.702Z,101.25
2022-11-28T11:44:29.682Z,101.25
2022-11-28T11:45:29.706Z,106.88
2022-11-28T11:46:29.747Z,106.88
2022-11-28T11:47:34.704Z,106.88
2022-11-28T11:48:29.658Z,106.88
2022-11-28T11:49:29.619Z,101.25
2022-11-28T11:50:29.601Z,101.25
2022-11-28T11:51:31.021Z,95.62
2022-11-28T11:52:29.608Z,95.62
2022-11-28T11:53:29.614Z,90.00
2022-11-28T11:54:29.591Z,84.38
2022-11-28T11:55:29.554Z,90.00
2022-11-28T11:56:29.550Z,84.38
2022-11-28T11:57:34.099Z,78.75
2022-11-28T11:58:34.543Z,78.75
2022-11-28T11:59:29.519Z,73.12
2022-11-28T12:00:29.481Z,73.12
2022-11-28T12:01:29.533Z,73.12
2022-11-28T12:02:29.616Z,73.12
2022-11-28T12:03:29.576Z,73.12
2022-11-28T12:04:47.917Z,73.12
2022-11-28T12:05:38.241Z,78.75
2022-11-28T12:06:30.451Z,78.75
2022-11-28T12:07:29.464Z,78.75
2022-11-28T12:08:29.407Z,78.75
2022-11-28T12:09:34.440Z,84.38
2022-11-28T12:10:29.374Z,84.38
2022-11-28T12:11:29.366Z,84.38
2022-11-28T12:12:29.401Z,78.75
2022-11-28T12:13:29.350Z,78.75
2022-11-28T12:14:29.333Z,78.75
2022-11-28T12:15:29.324Z,78.75
2022-11-28T12:16:29.341Z,78.75
2022-11-28T12:17:59.246Z,78.75
2022-11-28T12:18:30.341Z,78.75
2022-11-28T12:19:29.282Z,78.75
2022-11-28T12:20:34.314Z,78.75
2022-11-28T12:21:29.262Z,78.75
2022-11-28T12:22:29.242Z,78.75
2022-11-28T12:23:29.282Z,84.38
2022-11-28T12:24:29.218Z,84.38
2022-11-28T12:25:29.233Z,84.38
2022-11-28T12:26:29.200Z,90.00
2022-11-28T12:27:29.215Z,90.00
2022-11-28T12:28:29.248Z,90.00
2022-11-28T12:29:29.162Z,95.62
2022-11-28T12:30:29.178Z,95.62
2022-11-28T12:31:34.205Z,101.25
2022-11-28T12:32:29.168Z,101.25
2022-11-28T12:33:29.211Z,101.25
2022-11-28T12:34:29.190Z,95.62
2022-11-28T12:35:29.107Z,90.00
2022-11-28T12:36:29.096Z,84.38
2022-11-28T12:37:42.071Z,84.38
2022-11-28T12:38:30.115Z,84.38
2022-11-28T12:39:29.051Z,84.38
2022-11-28T12:40:29.078Z,78.75
2022-11-28T12:41:32.401Z,78.75
2022-11-28T12:42:34.064Z,78.75
2022-11-28T12:43:29.022Z,78.75
2022-11-28T12:44:29.056Z,78.75
2022-11-28T12:45:28.986Z,73.12
2022-11-28T12:46:29.061Z,73.12
2022-11-28T12:47:28.973Z,73.12
2022-11-28T12:48:28.952Z,73.12
2022-11-28T12:49:28.976Z,73.12
2022-11-28T12:50:28.924Z,67.50
2022-11-28T12:51:28.921Z,67.50
2022-11-28T12:52:28.905Z,67.50
2022-11-28T12:53:33.920Z,67.50
2022-11-28T12:54:28.970Z,67.50
2022-11-28T12:55:28.883Z,67.50
2022-11-28T12:56:28.859Z,67.50
2022-11-28T12:57:28.912Z,73.12
2022-11-28T12:58:28.857Z,73.12
2022-11-28T12:59:28.854Z,78.75
2022-11-28T13:00:28.820Z,78.75
2022-11-28T13:01:28.899Z,84.38
2022-11-28T13:02:28.914Z,84.38
2022-11-28T13:03:28.930Z,84.38
2022-11-28T13:04:33.871Z,84.38
2022-11-28T13:05:28.786Z,84.38
2022-11-28T13:06:28.751Z,84.38
2022-11-28T13:07:28.789Z,84.38
2022-11-28T13:08:28.737Z,78.75
2022-11-28T13:09:28.716Z,78.75
2022-11-28T13:10:28.717Z,78.75
2022-11-28T13:11:28.706Z,84.38
2022-11-28T13:12:28.753Z,84.38
2022-11-28T13:13:28.696Z,84.38
2022-11-28T13:14:28.669Z,84.38
2022-11-28T13:15:33.694Z,84.38
2022-11-28T13:16:28.702Z,84.38
2022-11-28T13:17:28.636Z,84.38
2022-11-28T13:18:28.618Z,90.00
2022-11-28T13:19:28.625Z,90.00
2022-11-28T13:20:28.605Z,90.00
2022-11-28T13:21:28.601Z,90.00
2022-11-28T13:22:28.600Z,90.00
2022-11-28T13:23:28.608Z,84.38
2022-11-28T13:24:28.555Z,84.38
2022-11-28T13:25:28.563Z,84.38
2022-11-28T13:26:33.567Z,84.38
2022-11-28T13:27:28.580Z,84.38
2022-11-28T13:28:28.527Z,84.38
2022-11-28T13:29:28.525Z,84.38
2022-11-28T13:30:28.586Z,90.00
2022-11-28T13:31:28.551Z,90.00
2022-11-28T13:32:28.465Z,90.00
2022-11-28T13:33:28.480Z,95.62
2022-11-28T13:34:28.435Z,95.62
2022-11-28T13:35:28.475Z,95.62
2022-11-28T13:38:40.975Z,95.62
2022-11-28T13:39:29.404Z,95.62
2022-11-28T13:40:28.423Z,90.00
2022-11-28T13:42:05.904Z,90.00
2022-11-28T13:42:59.535Z,90.00
2022-11-28T13:43:29.439Z,90.00
2022-11-28T13:44:28.357Z,84.38
2022-11-28T13:45:32.216Z,84.38
2022-11-28T13:46:28.343Z,84.38
2022-11-28T13:47:28.311Z,84.38
2022-11-28T13:48:57.538Z,84.38
2022-11-28T13:49:29.277Z,84.38
2022-11-28T13:50:28.271Z,78.75
2022-11-28T13:51:31.642Z,78.75
2022-11-28T13:52:28.246Z,78.75
2022-11-28T13:53:28.242Z,78.75
2022-11-28T13:54:28.240Z,78.75
2022-11-28T13:55:28.271Z,78.75
2022-11-28T13:56:28.271Z,78.75
2022-11-28T13:57:28.211Z,73.12
2022-11-28T13:58:28.494Z,73.12
2022-11-28T13:59:33.197Z,73.12
2022-11-28T14:00:28.253Z,73.12
2022-11-28T14:01:28.242Z,67.50
2022-11-28T14:02:28.274Z,67.50
2022-11-28T14:03:28.173Z,67.50
2022-11-28T14:04:28.225Z,67.50
2022-11-28T14:05:28.109Z,67.50
2022-11-28T14:06:28.108Z,67.50
2022-11-28T14:07:28.174Z,67.50
2022-11-28T14:08:28.062Z,67.50
2022-11-28T14:09:28.138Z,67.50
2022-11-28T14:10:33.076Z,67.50
2022-11-28T14:11:28.250Z,67.50
2022-11-28T14:12:28.011Z,61.88
2022-11-28T14:13:28.142Z,61.88
2022-11-28T14:14:27.996Z,61.88
2022-11-28T14:15:27.979Z,61.88
2022-11-28T14:16:28.064Z,61.88
2022-11-28T14:17:27.981Z,61.88
2022-11-28T14:19:28.941Z,56.25
2022-11-28T14:20:27.934Z,56.25
2022-11-28T14:21:32.951Z,50.62
2022-11-28T14:22:27.948Z,50.62
2022-11-28T14:23:27.923Z,50.62
2022-11-28T14:24:27.882Z,50.62
2022-11-28T14:25:27.873Z,50.62
2022-11-28T14:26:27.861Z,50.62
2022-11-28T14:27:27.907Z,50.62
2022-11-28T14:28:27.852Z,50.62
2022-11-28T14:29:27.824Z,45.00
2022-11-28T14:30:27.825Z,45.00
2022-11-28T14:31:30.505Z,45.00
2022-11-28T14:32:32.995Z,45.00
2022-11-28T14:33:27.850Z,50.62
2022-11-28T14:34:27.773Z,45.00
2022-11-28T14:35:27.769Z,45.00
2022-11-28T14:36:27.790Z,45.00
2022-11-28T14:37:27.760Z,45.00
2022-11-28T14:38:27.773Z,39.38
2022-11-28T14:39:27.730Z,39.38
2022-11-28T14:40:27.698Z,39.38
2022-11-28T14:41:27.692Z,39.38
2022-11-28T14:43:33.738Z,33.75
2022-11-28T14:44:27.675Z,33.75
2022-11-28T14:45:27.676Z,28.12
2022-11-28T14:46:27.760Z,28.12
2022-11-28T14:47:27.651Z,28.12
2022-11-28T14:48:27.726Z,28.12
2022-11-28T14:49:27.610Z,28.12
2022-11-28T14:50:27.592Z,28.12
2022-11-28T14:51:27.579Z,28.12
2022-11-28T14:52:42.904Z,28.12
2022-11-28T14:53:28.661Z,22.50
2022-11-28T14:54:32.567Z,22.50
2022-11-28T14:55:27.543Z,22.50
2022-11-28T14:56:27.544Z,22.50
2022-11-28T14:57:27.564Z,22.50
2022-11-28T14:58:27.533Z,22.50
2022-11-28T14:59:27.506Z,22.50
2022-11-28T15:00:27.513Z,22.50
2022-11-28T15:01:27.488Z,22.50
2022-11-28T15:02:27.607Z,22.50
2022-11-28T15:03:27.506Z,22.50
2022-11-28T15:04:27.470Z,16.88
2022-11-28T15:05:32.461Z,16.88
2022-11-28T15:06:27.434Z,16.88
2022-11-28T15:07:27.415Z,16.88
2022-11-28T15:08:27.419Z,16.88
2022-11-28T15:09:27.402Z,16.88
2022-11-28T15:10:27.381Z,11.25
2022-11-28T15:11:27.362Z,11.25
2022-11-28T15:12:27.344Z,11.25
2022-11-28T15:13:27.359Z,11.25
2022-11-28T15:14:27.398Z,11.25
2022-11-28T15:15:27.336Z,11.25
2022-11-28T15:16:32.497Z,11.25
2022-11-28T15:17:27.352Z,5.62
2022-11-28T15:18:27.342Z,5.62
2022-11-28T15:19:27.280Z,5.62
2022-11-28T15:20:27.318Z,5.62
2022-11-28T15:21:27.260Z,5.62
2022-11-28T15:22:27.249Z,5.62
2022-11-28T15:23:27.239Z,5.62
2022-11-28T15:24:27.226Z,5.62
2022-11-28T15:25:27.223Z,5.62
2022-11-28T15:26:27.189Z,5.62
2022-11-28T15:27:32.278Z,5.62
2022-11-28T15:28:27.219Z,0.00
2022-11-28T15:29:27.206Z,0.00
2022-11-28T15:30:27.150Z,0.00
2022-11-28T15:31:27.259Z,0.00
2022-11-28T15:32:27.155Z,0.00
2022-11-28T15:33:27.144Z,0.00
2022-11-28T15:34:27.122Z,0.00
2022-11-28T15:35:27.173Z,0.00
2022-11-28T15:36:27.144Z,0.00
2022-11-28T15:37:27.066Z,0.00
2022-11-28T15:38:32.158Z,0.00
2022-11-28T15:39:27.049Z,0.00
2022-11-28T15:40:27.082Z,0.00
2022-11-28T15:41:27.043Z,0.00
2022-11-28T15:42:27.010Z,0.00
2022-11-28T15:43:27.001Z,0.00
2022-11-28T15:44:27.006Z,0.00
2022-11-28T15:45:27.072Z,0.00
2022-11-28T15:46:27.032Z,0.00
2022-11-28T15:47:27.030Z,0.00
2022-11-28T15:48:26.941Z,0.00
2022-11-28T15:49:31.967Z,0.00
2022-11-28T15:50:26.939Z,0.00
2022-11-28T15:51:26.972Z,0.00
2022-11-28T15:52:26.950Z,0.00
2022-11-28T15:53:26.891Z,0.00
2022-11-28T15:54:26.974Z,0.00
2022-11-28T15:55:26.886Z,0.00
2022-11-28T15:56:26.886Z,0.00
2022-11-28T15:57:26.851Z,0.00
2022-11-28T15:58:26.905Z,0.00
2022-11-28T15:59:26.860Z,0.00
2022-11-28T16:00:31.886Z,0.00
2022-11-28T16:01:26.849Z,0.00
2022-11-28T16:02:26.847Z,0.00
2022-11-28T16:03:26.797Z,0.00
2022-11-28T16:04:26.781Z,0.00
2022-11-28T16:05:26.779Z,0.00
2022-11-28T16:06:26.807Z,0.00
2022-11-28T16:07:26.767Z,0.00
2022-11-28T16:08:26.763Z,0.00
2022-11-28T16:09:26.726Z,0.00
2022-11-28T16:10:26.697Z,0.00
2022-11-28T16:11:31.724Z,0.00
2022-11-28T16:12:26.705Z,0.00
2022-11-28T16:13:26.716Z,0.00
2022-11-28T16:14:26.671Z,0.00
2022-11-28T16:15:26.680Z,0.00
2022-11-28T16:16:26.769Z,0.00
2022-11-28T16:17:26.631Z,0.00
2022-11-28T16:18:26.639Z,0.00
2022-11-28T16:19:26.613Z,0.00
2022-11-28T16:20:26.653Z,0.00
2022-11-28T16:21:26.607Z,0.00
2022-11-28T16:22:31.624Z,0.00
2022-11-28T16:23:26.565Z,0.00
2022-11-28T16:24:26.619Z,0.00
2022-11-28T16:25:26.529Z,0.00
2022-11-28T16:26:26.578Z,0.00
2022-11-28T16:27:26.510Z,0.00
2022-11-28T16:28:26.497Z,0.00
2022-11-28T16:29:29.419Z,0.00
2022-11-28T16:30:27.481Z,0.00
2022-11-28T16:31:26.527Z,0.00
2022-11-28T16:32:26.471Z,0.00
2022-11-28T16:33:31.474Z,0.00
2022-11-28T16:34:26.452Z,0.00
2022-11-28T16:35:26.417Z,0.00
2022-11-28T16:36:26.432Z,0.00
2022-11-28T16:37:26.415Z,0.00
2022-11-28T16:38:26.389Z,0.00
2022-11-28T16:39:26.416Z,0.00
2022-11-28T16:40:26.419Z,0.00
2022-11-28T16:41:26.408Z,0.00
2022-11-28T16:42:26.344Z,0.00
2022-11-28T16:43:26.339Z,0.00
2022-11-28T16:44:31.422Z,0.00
2022-11-28T16:45:26.450Z,0.00
2022-11-28T16:46:26.299Z,0.00
2022-11-28T16:47:26.293Z,0.00
2022-11-28T16:48:26.281Z,0.00
2022-11-28T16:49:26.368Z,0.00
2022-11-28T16:50:26.323Z,0.00
2022-11-28T16:51:26.242Z,0.00
2022-11-28T16:52:26.262Z,0.00
2022-11-28T16:53:26.254Z,0.00
2022-11-28T16:54:26.230Z,0.00
2022-11-28T16:55:31.282Z,0.00
2022-11-28T16:56:26.211Z,0.00
2022-11-28T16:57:30.262Z,0.00
2022-11-28T16:58:27.165Z,0.00
2022-11-28T16:59:26.164Z,0.00
2022-11-28T17:00:26.176Z,0.00
2022-11-28T17:01:26.194Z,0.00
2022-11-28T17:02:26.200Z,0.00
2022-11-28T17:03:26.106Z,0.00
2022-11-28T17:04:26.159Z,0.00
2022-11-28T17:05:26.148Z,0.00
2022-11-28T17:06:31.125Z,0.00
2022-11-28T17:07:26.095Z,0.00
2022-11-28T17:08:30.259Z,0.00
2022-11-28T17:09:26.041Z,0.00
2022-11-28T17:10:26.039Z,0.00
2022-11-28T17:11:26.157Z,0.00
2022-11-28T17:12:26.102Z,0.00
2022-11-28T17:13:25.999Z,0.00
2022-11-28T17:14:25.996Z,0.00
2022-11-28T17:15:25.983Z,0.00
2022-11-28T17:16:26.012Z,0.00
2022-11-28T17:17:31.000Z,0.00
2022-11-28T17:18:25.947Z,0.00
2022-11-28T17:19:26.965Z,0.00
2022-11-28T17:20:26.541Z,0.00
2022-11-28T17:21:25.904Z,0.00
2022-11-28T17:22:25.916Z,0.00
2022-11-28T17:23:25.929Z,0.00
2022-11-28T17:24:25.883Z,0.00
2022-11-28T17:25:25.872Z,0.00
2022-11-28T17:26:25.861Z,0.00
2022-11-28T17:27:25.913Z,0.00
2022-11-28T17:28:30.866Z,0.00
2022-11-28T17:29:25.827Z,0.00
2022-11-28T17:30:25.896Z,0.00
2022-11-28T17:31:25.833Z,0.00
2022-11-28T17:32:25.786Z,0.00
2022-11-28T17:33:25.789Z,0.00
2022-11-28T17:34:25.769Z,0.00
2022-11-28T17:35:25.776Z,0.00
2022-11-28T17:36:25.772Z,0.00
2022-11-28T17:37:25.741Z,0.00
2022-11-28T17:38:25.728Z,0.00
2022-11-28T17:39:30.736Z,0.00
2022-11-28T17:40:25.738Z,0.00
2022-11-28T17:41:25.693Z,0.00
2022-11-28T17:42:25.675Z,0.00
2022-11-28T17:43:25.732Z,0.00
2022-11-28T17:44:25.656Z,0.00
2022-11-28T17:45:26.421Z,0.00
2022-11-28T17:46:25.632Z,0.00
2022-11-28T17:47:25.620Z,0.00
2022-11-28T17:48:25.613Z,0.00
2022-11-28T17:49:25.643Z,0.00
2022-11-28T17:50:30.626Z,0.00
2022-11-28T17:51:25.569Z,0.00
2022-11-28T17:52:25.582Z,0.00
2022-11-28T17:53:25.547Z,0.00
2022-11-28T17:54:25.554Z,0.00
2022-11-28T17:55:25.555Z,0.00
2022-11-28T17:56:25.539Z,0.00
2022-11-28T17:57:25.505Z,0.00
2022-11-28T17:58:25.509Z,0.00
2022-11-28T17:59:25.503Z,0.00
2022-11-28T18:00:25.471Z,0.00
2022-11-28T18:01:30.541Z,0.00
2022-11-28T18:02:25.531Z,0.00
2022-11-28T18:03:25.434Z,0.00
2022-11-28T18:04:25.427Z,0.00
2022-11-28T18:05:25.423Z,0.00